sensor_id;sensor_type;location;lat;lon;timestamp;P1;durP1;ratioP1;P2;durP2;ratioP2
22622;SDS011;11478;51.094;7.030;2022-08-21T00:00:10;22.30;;;13.05;;
22622;SDS011;11478;51.094;7.030;2022-08-21T00:02:44;17.92;;;13.60;;
22622;SDS011;11478;51.094;7.030;2022-08-21T00:05:31;19.17;;;12.75;;
22622;SDS011;11478;51.094;7.030;2022-08-21T00:08:00;17.52;;;12.65;;
22622;SDS011;11478;51.094;7.030;2022-08-21T00:10:26;16.63;;;12.25;;
22622;SDS011;11478;51.094;7.030;2022-08-21T00:12:56;22.17;;;13.15;;
22622;SDS011;11478;51.094;7.030;2022-08-21T00:15:25;20.75;;;13.82;;
22622;SDS011;11478;51.094;7.030;2022-08-21T00:17:55;18.48;;;13.30;;
22622;SDS011;11478;51.094;7.030;2022-08-21T00:20:21;17.92;;;12.93;;
22622;SDS011;11478;51.094;7.030;2022-08-21T00:22:50;21.23;;;12.73;;
22622;SDS011;11478;51.094;7.030;2022-08-21T00:25:18;18.63;;;12.73;;
22622;SDS011;11478;51.094;7.030;2022-08-21T00:27:53;22.20;;;13.32;;
22622;SDS011;11478;51.094;7.030;2022-08-21T00:30:20;20.70;;;13.95;;
22622;SDS011;11478;51.094;7.030;2022-08-21T00:32:59;21.17;;;13.73;;
22622;SDS011;11478;51.094;7.030;2022-08-21T00:35:27;21.45;;;12.85;;
22622;SDS011;11478;51.094;7.030;2022-08-21T00:37:58;18.30;;;12.98;;
22622;SDS011;11478;51.094;7.030;2022-08-21T00:40:30;21.58;;;13.05;;
22622;SDS011;11478;51.094;7.030;2022-08-21T00:42:59;16.17;;;12.60;;
22622;SDS011;11478;51.094;7.030;2022-08-21T00:45:27;22.45;;;13.60;;
22622;SDS011;11478;51.094;7.030;2022-08-21T00:47:53;19.63;;;13.43;;
22622;SDS011;11478;51.094;7.030;2022-08-21T00:50:31;17.75;;;13.43;;
22622;SDS011;11478;51.094;7.030;2022-08-21T00:52:59;19.38;;;13.55;;
22622;SDS011;11478;51.094;7.030;2022-08-21T00:55:31;18.67;;;12.65;;
22622;SDS011;11478;51.094;7.030;2022-08-21T00:57:57;19.33;;;12.82;;
22622;SDS011;11478;51.094;7.030;2022-08-21T01:00:30;21.00;;;13.10;;
22622;SDS011;11478;51.094;7.030;2022-08-21T01:02:58;18.52;;;13.15;;
22622;SDS011;11478;51.094;7.030;2022-08-21T01:05:26;20.20;;;12.75;;
22622;SDS011;11478;51.094;7.030;2022-08-21T01:07:53;20.02;;;13.23;;
22622;SDS011;11478;51.094;7.030;2022-08-21T01:10:23;19.35;;;13.45;;
22622;SDS011;11478;51.094;7.030;2022-08-21T01:12:50;18.65;;;12.63;;
22622;SDS011;11478;51.094;7.030;2022-08-21T01:15:17;17.73;;;12.68;;
22622;SDS011;11478;51.094;7.030;2022-08-21T01:17:46;17.58;;;13.50;;
22622;SDS011;11478;51.094;7.030;2022-08-21T01:22:47;16.55;;;11.73;;
22622;SDS011;11478;51.094;7.030;2022-08-21T01:25:20;18.05;;;12.23;;
22622;SDS011;11478;51.094;7.030;2022-08-21T01:27:46;20.13;;;11.90;;
22622;SDS011;11478;51.094;7.030;2022-08-21T01:30:22;15.85;;;10.57;;
22622;SDS011;11478;51.094;7.030;2022-08-21T01:32:50;25.70;;;12.57;;
22622;SDS011;11478;51.094;7.030;2022-08-21T01:35:17;21.15;;;12.45;;
22622;SDS011;11478;51.094;7.030;2022-08-21T01:37:46;17.02;;;12.43;;
22622;SDS011;11478;51.094;7.030;2022-08-21T01:40:14;21.33;;;12.63;;
22622;SDS011;11478;51.094;7.030;2022-08-21T01:42:43;20.88;;;13.48;;
22622;SDS011;11478;51.094;7.030;2022-08-21T01:45:10;18.52;;;13.07;;
22622;SDS011;11478;51.094;7.030;2022-08-21T01:47:38;19.75;;;11.90;;
22622;SDS011;11478;51.094;7.030;2022-08-21T01:50:05;20.23;;;11.90;;
22622;SDS011;11478;51.094;7.030;2022-08-21T01:52:34;16.65;;;11.40;;
22622;SDS011;11478;51.094;7.030;2022-08-21T01:55:00;18.20;;;11.57;;
22622;SDS011;11478;51.094;7.030;2022-08-21T01:57:26;16.88;;;11.80;;
22622;SDS011;11478;51.094;7.030;2022-08-21T01:59:52;18.10;;;11.70;;
22622;SDS011;11478;51.094;7.030;2022-08-21T02:02:19;17.50;;;11.77;;
22622;SDS011;11478;51.094;7.030;2022-08-21T02:04:45;17.90;;;11.85;;
22622;SDS011;11478;51.094;7.030;2022-08-21T02:07:11;18.27;;;11.30;;
22622;SDS011;11478;51.094;7.030;2022-08-21T02:09:37;18.40;;;11.70;;
22622;SDS011;11478;51.094;7.030;2022-08-21T02:12:03;19.08;;;10.82;;
22622;SDS011;11478;51.094;7.030;2022-08-21T02:14:29;16.42;;;11.30;;
22622;SDS011;11478;51.094;7.030;2022-08-21T02:16:55;17.38;;;10.45;;
22622;SDS011;11478;51.094;7.030;2022-08-21T02:19:21;17.75;;;11.25;;
22622;SDS011;11478;51.094;7.030;2022-08-21T02:21:47;17.77;;;10.95;;
22622;SDS011;11478;51.094;7.030;2022-08-21T02:24:13;13.52;;;10.13;;
22622;SDS011;11478;51.094;7.030;2022-08-21T02:26:40;13.07;;;9.98;;
22622;SDS011;11478;51.094;7.030;2022-08-21T02:29:06;15.50;;;10.45;;
22622;SDS011;11478;51.094;7.030;2022-08-21T02:31:33;14.60;;;10.57;;
22622;SDS011;11478;51.094;7.030;2022-08-21T02:33:59;15.35;;;11.07;;
22622;SDS011;11478;51.094;7.030;2022-08-21T02:36:25;21.33;;;11.48;;
22622;SDS011;11478;51.094;7.030;2022-08-21T02:41:21;15.05;;;10.52;;
22622;SDS011;11478;51.094;7.030;2022-08-21T02:43:50;15.45;;;10.32;;
22622;SDS011;11478;51.094;7.030;2022-08-21T02:46:17;17.33;;;10.82;;
22622;SDS011;11478;51.094;7.030;2022-08-21T02:48:48;21.05;;;11.05;;
22622;SDS011;11478;51.094;7.030;2022-08-21T02:51:16;18.08;;;11.55;;
22622;SDS011;11478;51.094;7.030;2022-08-21T02:56:14;18.73;;;12.13;;
22622;SDS011;11478;51.094;7.030;2022-08-21T02:58:51;15.20;;;10.48;;
22622;SDS011;11478;51.094;7.030;2022-08-21T03:01:17;13.98;;;10.70;;
22622;SDS011;11478;51.094;7.030;2022-08-21T03:03:48;17.52;;;11.00;;
22622;SDS011;11478;51.094;7.030;2022-08-21T03:06:16;18.45;;;10.60;;
22622;SDS011;11478;51.094;7.030;2022-08-21T03:08:44;16.08;;;9.75;;
22622;SDS011;11478;51.094;7.030;2022-08-21T03:11:11;13.40;;;9.60;;
22622;SDS011;11478;51.094;7.030;2022-08-21T03:13:39;16.50;;;9.80;;
22622;SDS011;11478;51.094;7.030;2022-08-21T03:16:06;13.02;;;9.48;;
22622;SDS011;11478;51.094;7.030;2022-08-21T03:18:34;14.45;;;9.00;;
22622;SDS011;11478;51.094;7.030;2022-08-21T03:21:00;16.85;;;9.07;;
22622;SDS011;11478;51.094;7.030;2022-08-21T03:23:26;10.63;;;8.43;;
22622;SDS011;11478;51.094;7.030;2022-08-21T03:25:52;12.45;;;9.50;;
22622;SDS011;11478;51.094;7.030;2022-08-21T03:28:21;12.48;;;10.02;;
22622;SDS011;11478;51.094;7.030;2022-08-21T03:30:48;14.20;;;10.55;;
22622;SDS011;11478;51.094;7.030;2022-08-21T03:33:16;16.33;;;9.82;;
22622;SDS011;11478;51.094;7.030;2022-08-21T03:35:44;15.82;;;10.30;;
22622;SDS011;11478;51.094;7.030;2022-08-21T03:38:12;15.77;;;10.35;;
22622;SDS011;11478;51.094;7.030;2022-08-21T03:43:35;13.60;;;9.20;;
22622;SDS011;11478;51.094;7.030;2022-08-21T03:48:35;17.48;;;9.68;;
22622;SDS011;11478;51.094;7.030;2022-08-21T03:51:04;16.10;;;11.32;;
22622;SDS011;11478;51.094;7.030;2022-08-21T03:53:31;14.07;;;9.40;;
22622;SDS011;11478;51.094;7.030;2022-08-21T03:55:58;17.88;;;10.50;;
22622;SDS011;11478;51.094;7.030;2022-08-21T03:58:25;14.70;;;10.23;;
22622;SDS011;11478;51.094;7.030;2022-08-21T04:00:57;16.50;;;10.43;;
22622;SDS011;11478;51.094;7.030;2022-08-21T04:03:25;15.00;;;10.70;;
22622;SDS011;11478;51.094;7.030;2022-08-21T04:05:54;15.45;;;10.32;;
22622;SDS011;11478;51.094;7.030;2022-08-21T04:08:20;18.35;;;10.70;;
22622;SDS011;11478;51.094;7.030;2022-08-21T04:10:46;14.95;;;10.55;;
22622;SDS011;11478;51.094;7.030;2022-08-21T04:13:15;19.55;;;10.75;;
22622;SDS011;11478;51.094;7.030;2022-08-21T04:15:43;15.55;;;10.50;;
22622;SDS011;11478;51.094;7.030;2022-08-21T04:18:10;20.60;;;10.63;;
22622;SDS011;11478;51.094;7.030;2022-08-21T04:20:45;17.65;;;11.25;;
22622;SDS011;11478;51.094;7.030;2022-08-21T04:23:14;15.93;;;10.60;;
22622;SDS011;11478;51.094;7.030;2022-08-21T04:25:40;17.88;;;10.23;;
22622;SDS011;11478;51.094;7.030;2022-08-21T04:28:06;14.88;;;9.88;;
22622;SDS011;11478;51.094;7.030;2022-08-21T04:30:32;14.55;;;9.88;;
22622;SDS011;11478;51.094;7.030;2022-08-21T04:32:58;13.57;;;10.18;;
22622;SDS011;11478;51.094;7.030;2022-08-21T04:35:29;18.42;;;9.93;;
22622;SDS011;11478;51.094;7.030;2022-08-21T04:37:56;15.88;;;11.43;;
22622;SDS011;11478;51.094;7.030;2022-08-21T04:40:24;12.80;;;10.10;;
22622;SDS011;11478;51.094;7.030;2022-08-21T04:42:52;14.90;;;10.50;;
22622;SDS011;11478;51.094;7.030;2022-08-21T04:47:59;14.73;;;10.15;;
22622;SDS011;11478;51.094;7.030;2022-08-21T04:50:40;17.67;;;10.20;;
22622;SDS011;11478;51.094;7.030;2022-08-21T04:53:24;17.35;;;10.63;;
22622;SDS011;11478;51.094;7.030;2022-08-21T04:56:10;17.42;;;10.30;;
22622;SDS011;11478;51.094;7.030;2022-08-21T04:58:43;18.23;;;10.45;;
22622;SDS011;11478;51.094;7.030;2022-08-21T05:01:11;15.48;;;10.40;;
22622;SDS011;11478;51.094;7.030;2022-08-21T05:03:41;13.80;;;9.93;;
22622;SDS011;11478;51.094;7.030;2022-08-21T05:06:09;15.38;;;10.25;;
22622;SDS011;11478;51.094;7.030;2022-08-21T05:08:37;14.30;;;9.85;;
22622;SDS011;11478;51.094;7.030;2022-08-21T05:11:04;14.98;;;10.07;;
22622;SDS011;11478;51.094;7.030;2022-08-21T05:13:32;16.48;;;11.10;;
22622;SDS011;11478;51.094;7.030;2022-08-21T05:15:58;16.48;;;11.30;;
22622;SDS011;11478;51.094;7.030;2022-08-21T05:18:24;16.52;;;11.35;;
22622;SDS011;11478;51.094;7.030;2022-08-21T05:20:50;18.73;;;12.00;;
22622;SDS011;11478;51.094;7.030;2022-08-21T05:23:16;19.92;;;13.05;;
22622;SDS011;11478;51.094;7.030;2022-08-21T05:25:42;21.73;;;12.52;;
22622;SDS011;11478;51.094;7.030;2022-08-21T05:28:15;14.40;;;11.65;;
22622;SDS011;11478;51.094;7.030;2022-08-21T05:30:41;16.20;;;11.50;;
22622;SDS011;11478;51.094;7.030;2022-08-21T05:33:07;25.13;;;12.43;;
22622;SDS011;11478;51.094;7.030;2022-08-21T05:35:33;17.40;;;11.32;;
22622;SDS011;11478;51.094;7.030;2022-08-21T05:37:59;16.73;;;12.00;;
22622;SDS011;11478;51.094;7.030;2022-08-21T05:40:25;20.90;;;12.60;;
22622;SDS011;11478;51.094;7.030;2022-08-21T05:42:54;18.58;;;12.38;;
22622;SDS011;11478;51.094;7.030;2022-08-21T05:45:25;15.93;;;11.90;;
22622;SDS011;11478;51.094;7.030;2022-08-21T05:47:53;19.65;;;12.27;;
22622;SDS011;11478;51.094;7.030;2022-08-21T05:50:19;16.90;;;10.98;;
22622;SDS011;11478;51.094;7.030;2022-08-21T05:52:47;19.88;;;12.07;;
22622;SDS011;11478;51.094;7.030;2022-08-21T05:55:12;15.32;;;11.63;;
22622;SDS011;11478;51.094;7.030;2022-08-21T05:57:40;17.05;;;11.48;;
22622;SDS011;11478;51.094;7.030;2022-08-21T06:00:07;16.75;;;11.77;;
22622;SDS011;11478;51.094;7.030;2022-08-21T06:02:38;18.40;;;11.65;;
22622;SDS011;11478;51.094;7.030;2022-08-21T06:05:05;14.27;;;10.88;;
22622;SDS011;11478;51.094;7.030;2022-08-21T06:07:34;15.27;;;10.98;;
22622;SDS011;11478;51.094;7.030;2022-08-21T06:10:00;13.85;;;11.05;;
22622;SDS011;11478;51.094;7.030;2022-08-21T06:12:26;14.95;;;10.75;;
22622;SDS011;11478;51.094;7.030;2022-08-21T06:14:52;17.10;;;11.05;;
22622;SDS011;11478;51.094;7.030;2022-08-21T06:17:33;17.33;;;10.63;;
22622;SDS011;11478;51.094;7.030;2022-08-21T06:19:59;15.75;;;10.20;;
22622;SDS011;11478;51.094;7.030;2022-08-21T06:22:25;13.55;;;10.23;;
22622;SDS011;11478;51.094;7.030;2022-08-21T06:24:51;16.75;;;9.98;;
22622;SDS011;11478;51.094;7.030;2022-08-21T06:27:17;14.80;;;9.30;;
22622;SDS011;11478;51.094;7.030;2022-08-21T06:29:43;11.23;;;8.75;;
22622;SDS011;11478;51.094;7.030;2022-08-21T06:32:12;12.40;;;8.77;;
22622;SDS011;11478;51.094;7.030;2022-08-21T06:34:39;12.43;;;8.30;;
22622;SDS011;11478;51.094;7.030;2022-08-21T06:37:06;15.10;;;9.30;;
22622;SDS011;11478;51.094;7.030;2022-08-21T06:39:33;12.27;;;9.05;;
22622;SDS011;11478;51.094;7.030;2022-08-21T06:41:59;10.32;;;8.27;;
22622;SDS011;11478;51.094;7.030;2022-08-21T06:44:26;9.80;;;7.53;;
22622;SDS011;11478;51.094;7.030;2022-08-21T06:46:51;9.38;;;7.00;;
22622;SDS011;11478;51.094;7.030;2022-08-21T06:49:17;11.15;;;7.10;;
22622;SDS011;11478;51.094;7.030;2022-08-21T06:51:43;12.10;;;8.20;;
22622;SDS011;11478;51.094;7.030;2022-08-21T06:54:10;12.15;;;7.70;;
22622;SDS011;11478;51.094;7.030;2022-08-21T06:56:36;9.10;;;7.30;;
22622;SDS011;11478;51.094;7.030;2022-08-21T06:59:13;10.27;;;7.88;;
22622;SDS011;11478;51.094;7.030;2022-08-21T07:01:39;14.18;;;7.70;;
22622;SDS011;11478;51.094;7.030;2022-08-21T07:04:07;13.70;;;8.93;;
22622;SDS011;11478;51.094;7.030;2022-08-21T07:06:33;13.60;;;9.05;;
22622;SDS011;11478;51.094;7.030;2022-08-21T07:09:00;18.40;;;9.55;;
22622;SDS011;11478;51.094;7.030;2022-08-21T07:11:27;12.63;;;9.32;;
22622;SDS011;11478;51.094;7.030;2022-08-21T07:13:53;14.05;;;9.05;;
22622;SDS011;11478;51.094;7.030;2022-08-21T07:16:21;16.23;;;9.25;;
22622;SDS011;11478;51.094;7.030;2022-08-21T07:21:18;17.83;;;10.60;;
22622;SDS011;11478;51.094;7.030;2022-08-21T07:23:48;17.98;;;9.75;;
22622;SDS011;11478;51.094;7.030;2022-08-21T07:26:19;17.13;;;9.93;;
22622;SDS011;11478;51.094;7.030;2022-08-21T07:28:50;17.15;;;8.55;;
22622;SDS011;11478;51.094;7.030;2022-08-21T07:31:17;15.75;;;8.20;;
22622;SDS011;11478;51.094;7.030;2022-08-21T07:33:57;16.23;;;8.75;;
22622;SDS011;11478;51.094;7.030;2022-08-21T07:36:23;14.90;;;8.40;;
22622;SDS011;11478;51.094;7.030;2022-08-21T07:38:49;14.65;;;7.28;;
22622;SDS011;11478;51.094;7.030;2022-08-21T07:41:17;15.73;;;7.97;;
22622;SDS011;11478;51.094;7.030;2022-08-21T07:43:47;11.88;;;6.70;;
22622;SDS011;11478;51.094;7.030;2022-08-21T07:46:13;16.60;;;7.03;;
22622;SDS011;11478;51.094;7.030;2022-08-21T07:48:39;11.77;;;6.45;;
22622;SDS011;11478;51.094;7.030;2022-08-21T07:51:11;11.27;;;7.10;;
22622;SDS011;11478;51.094;7.030;2022-08-21T07:53:41;11.13;;;6.88;;
22622;SDS011;11478;51.094;7.030;2022-08-21T07:56:07;13.13;;;6.43;;
22622;SDS011;11478;51.094;7.030;2022-08-21T07:58:36;8.73;;;5.72;;
22622;SDS011;11478;51.094;7.030;2022-08-21T08:01:05;12.13;;;5.93;;
22622;SDS011;11478;51.094;7.030;2022-08-21T08:03:32;10.88;;;5.18;;
22622;SDS011;11478;51.094;7.030;2022-08-21T08:05:58;11.05;;;6.10;;
22622;SDS011;11478;51.094;7.030;2022-08-21T08:08:24;13.20;;;5.82;;
22622;SDS011;11478;51.094;7.030;2022-08-21T08:10:50;14.43;;;5.25;;
22622;SDS011;11478;51.094;7.030;2022-08-21T08:13:16;11.55;;;5.70;;
22622;SDS011;11478;51.094;7.030;2022-08-21T08:15:42;10.05;;;4.53;;
22622;SDS011;11478;51.094;7.030;2022-08-21T08:18:08;12.15;;;4.72;;
22622;SDS011;11478;51.094;7.030;2022-08-21T08:20:34;12.13;;;4.85;;
22622;SDS011;11478;51.094;7.030;2022-08-21T08:23:01;9.27;;;4.25;;
22622;SDS011;11478;51.094;7.030;2022-08-21T08:25:28;9.63;;;4.53;;
22622;SDS011;11478;51.094;7.030;2022-08-21T08:27:54;10.35;;;4.25;;
22622;SDS011;11478;51.094;7.030;2022-08-21T08:30:20;11.75;;;4.30;;
22622;SDS011;11478;51.094;7.030;2022-08-21T08:32:47;8.98;;;4.13;;
22622;SDS011;11478;51.094;7.030;2022-08-21T08:35:14;10.35;;;3.72;;
22622;SDS011;11478;51.094;7.030;2022-08-21T08:37:41;9.02;;;3.10;;
22622;SDS011;11478;51.094;7.030;2022-08-21T08:42:45;8.98;;;2.65;;
22622;SDS011;11478;51.094;7.030;2022-08-21T08:45:18;6.63;;;2.40;;
22622;SDS011;11478;51.094;7.030;2022-08-21T08:47:52;8.27;;;2.40;;
22622;SDS011;11478;51.094;7.030;2022-08-21T08:50:38;6.40;;;2.20;;
22622;SDS011;11478;51.094;7.030;2022-08-21T08:53:20;7.43;;;2.20;;
22622;SDS011;11478;51.094;7.030;2022-08-21T08:55:51;8.55;;;2.55;;
22622;SDS011;11478;51.094;7.030;2022-08-21T09:00:59;8.35;;;2.60;;
22622;SDS011;11478;51.094;7.030;2022-08-21T09:03:27;7.10;;;2.20;;
22622;SDS011;11478;51.094;7.030;2022-08-21T09:06:05;6.22;;;2.00;;
22622;SDS011;11478;51.094;7.030;2022-08-21T09:09:02;8.18;;;2.33;;
22622;SDS011;11478;51.094;7.030;2022-08-21T09:25:22;9.23;;;2.50;;
22622;SDS011;11478;51.094;7.030;2022-08-21T09:27:53;6.57;;;2.28;;
22622;SDS011;11478;51.094;7.030;2022-08-21T09:30:30;7.13;;;2.20;;
22622;SDS011;11478;51.094;7.030;2022-08-21T09:32:57;13.45;;;2.30;;
22622;SDS011;11478;51.094;7.030;2022-08-21T09:35:26;6.47;;;2.35;;
22622;SDS011;11478;51.094;7.030;2022-08-21T09:43:04;7.65;;;2.42;;
22622;SDS011;11478;51.094;7.030;2022-08-21T09:45:40;7.75;;;2.47;;
22622;SDS011;11478;51.094;7.030;2022-08-21T09:48:11;9.10;;;2.08;;
22622;SDS011;11478;51.094;7.030;2022-08-21T09:50:39;9.35;;;2.30;;
22622;SDS011;11478;51.094;7.030;2022-08-21T09:53:15;6.00;;;1.92;;
22622;SDS011;11478;51.094;7.030;2022-08-21T09:55:48;9.15;;;2.60;;
22622;SDS011;11478;51.094;7.030;2022-08-21T09:58:40;8.30;;;1.85;;
22622;SDS011;11478;51.094;7.030;2022-08-21T10:01:12;8.65;;;2.35;;
22622;SDS011;11478;51.094;7.030;2022-08-21T10:06:19;10.18;;;2.40;;
22622;SDS011;11478;51.094;7.030;2022-08-21T10:09:15;6.35;;;1.90;;
22622;SDS011;11478;51.094;7.030;2022-08-21T10:14:57;8.57;;;2.13;;
22622;SDS011;11478;51.094;7.030;2022-08-21T10:20:34;6.60;;;2.10;;
22622;SDS011;11478;51.094;7.030;2022-08-21T10:26:05;9.15;;;2.05;;
22622;SDS011;11478;51.094;7.030;2022-08-21T10:34:32;7.35;;;1.83;;
22622;SDS011;11478;51.094;7.030;2022-08-21T10:40:12;5.03;;;1.65;;
22622;SDS011;11478;51.094;7.030;2022-08-21T10:42:58;8.57;;;2.13;;
22622;SDS011;11478;51.094;7.030;2022-08-21T10:48:52;6.72;;;1.70;;
22622;SDS011;11478;51.094;7.030;2022-08-21T10:54:19;7.97;;;1.90;;
22622;SDS011;11478;51.094;7.030;2022-08-21T10:56:51;6.65;;;1.75;;
22622;SDS011;11478;51.094;7.030;2022-08-21T10:59:33;8.40;;;2.03;;
22622;SDS011;11478;51.094;7.030;2022-08-21T11:02:33;6.68;;;1.67;;
22622;SDS011;11478;51.094;7.030;2022-08-21T11:08:32;9.25;;;1.85;;
22622;SDS011;11478;51.094;7.030;2022-08-21T11:17:00;5.63;;;1.58;;
22622;SDS011;11478;51.094;7.030;2022-08-21T11:19:38;5.88;;;1.48;;
22622;SDS011;11478;51.094;7.030;2022-08-21T11:30:15;4.65;;;1.75;;
22622;SDS011;11478;51.094;7.030;2022-08-21T11:32:45;7.05;;;2.08;;
22622;SDS011;11478;51.094;7.030;2022-08-21T11:35:41;4.43;;;1.75;;
22622;SDS011;11478;51.094;7.030;2022-08-21T11:41:58;7.25;;;1.60;;
22622;SDS011;11478;51.094;7.030;2022-08-21T11:52:53;5.32;;;1.70;;
22622;SDS011;11478;51.094;7.030;2022-08-21T12:08:40;4.85;;;1.40;;
22622;SDS011;11478;51.094;7.030;2022-08-21T12:11:29;7.82;;;1.58;;
22622;SDS011;11478;51.094;7.030;2022-08-21T12:14:21;6.63;;;1.40;;
22622;SDS011;11478;51.094;7.030;2022-08-21T12:19:59;6.78;;;1.55;;
22622;SDS011;11478;51.094;7.030;2022-08-21T12:25:13;6.18;;;1.63;;
22622;SDS011;11478;51.094;7.030;2022-08-21T12:30:36;3.28;;;1.30;;
22622;SDS011;11478;51.094;7.030;2022-08-21T12:36:06;5.45;;;1.60;;
22622;SDS011;11478;51.094;7.030;2022-08-21T12:38:54;6.50;;;1.42;;
22622;SDS011;11478;51.094;7.030;2022-08-21T12:41:34;7.97;;;1.80;;
22622;SDS011;11478;51.094;7.030;2022-08-21T12:44:38;3.22;;;1.50;;
22622;SDS011;11478;51.094;7.030;2022-08-21T12:47:24;3.92;;;1.40;;
22622;SDS011;11478;51.094;7.030;2022-08-21T12:56:01;4.43;;;1.42;;
22622;SDS011;11478;51.094;7.030;2022-08-21T12:58:39;4.25;;;1.70;;
22622;SDS011;11478;51.094;7.030;2022-08-21T13:01:32;8.15;;;1.60;;
22622;SDS011;11478;51.094;7.030;2022-08-21T13:04:18;4.85;;;1.58;;
22622;SDS011;11478;51.094;7.030;2022-08-21T13:06:49;4.50;;;1.65;;
22622;SDS011;11478;51.094;7.030;2022-08-21T13:09:20;3.47;;;1.40;;
22622;SDS011;11478;51.094;7.030;2022-08-21T13:11:52;4.60;;;1.40;;
22622;SDS011;11478;51.094;7.030;2022-08-21T13:14:34;4.13;;;1.42;;
22622;SDS011;11478;51.094;7.030;2022-08-21T13:17:10;5.55;;;1.88;;
22622;SDS011;11478;51.094;7.030;2022-08-21T13:19:40;4.53;;;1.45;;
22622;SDS011;11478;51.094;7.030;2022-08-21T13:22:12;10.88;;;1.63;;
22622;SDS011;11478;51.094;7.030;2022-08-21T13:24:51;3.20;;;1.20;;
22622;SDS011;11478;51.094;7.030;2022-08-21T13:27:20;4.93;;;1.60;;
22622;SDS011;11478;51.094;7.030;2022-08-21T13:30:00;4.60;;;1.30;;
22622;SDS011;11478;51.094;7.030;2022-08-21T13:32:55;6.65;;;1.40;;
22622;SDS011;11478;51.094;7.030;2022-08-21T13:35:28;4.90;;;1.65;;
22622;SDS011;11478;51.094;7.030;2022-08-21T13:38:13;6.57;;;1.60;;
22622;SDS011;11478;51.094;7.030;2022-08-21T13:40:58;9.15;;;2.05;;
22622;SDS011;11478;51.094;7.030;2022-08-21T13:43:32;6.68;;;1.55;;
22622;SDS011;11478;51.094;7.030;2022-08-21T13:46:00;5.95;;;1.70;;
22622;SDS011;11478;51.094;7.030;2022-08-21T13:48:28;3.42;;;1.30;;
22622;SDS011;11478;51.094;7.030;2022-08-21T13:51:00;7.47;;;2.05;;
22622;SDS011;11478;51.094;7.030;2022-08-21T13:53:33;6.97;;;1.70;;
22622;SDS011;11478;51.094;7.030;2022-08-21T13:56:04;3.70;;;1.58;;
22622;SDS011;11478;51.094;7.030;2022-08-21T13:58:45;4.90;;;1.58;;
22622;SDS011;11478;51.094;7.030;2022-08-21T14:01:21;6.22;;;1.67;;
22622;SDS011;11478;51.094;7.030;2022-08-21T14:06:46;8.85;;;1.67;;
22622;SDS011;11478;51.094;7.030;2022-08-21T14:09:39;6.65;;;1.30;;
22622;SDS011;11478;51.094;7.030;2022-08-21T14:12:15;4.53;;;1.67;;
22622;SDS011;11478;51.094;7.030;2022-08-21T14:14:51;8.38;;;1.60;;
22622;SDS011;11478;51.094;7.030;2022-08-21T14:17:48;4.35;;;1.77;;
22622;SDS011;11478;51.094;7.030;2022-08-21T14:20:29;4.20;;;1.58;;
22622;SDS011;11478;51.094;7.030;2022-08-21T14:23:01;6.63;;;1.63;;
22622;SDS011;11478;51.094;7.030;2022-08-21T14:25:29;2.50;;;1.40;;
22622;SDS011;11478;51.094;7.030;2022-08-21T14:28:17;5.75;;;2.03;;
22622;SDS011;11478;51.094;7.030;2022-08-21T14:30:58;3.63;;;1.50;;
22622;SDS011;11478;51.094;7.030;2022-08-21T14:33:39;5.05;;;1.55;;
22622;SDS011;11478;51.094;7.030;2022-08-21T14:36:16;4.45;;;1.30;;
22622;SDS011;11478;51.094;7.030;2022-08-21T14:41:47;3.90;;;1.20;;
22622;SDS011;11478;51.094;7.030;2022-08-21T14:44:20;4.90;;;1.30;;
22622;SDS011;11478;51.094;7.030;2022-08-21T14:46:48;2.33;;;1.10;;
22622;SDS011;11478;51.094;7.030;2022-08-21T14:49:18;3.75;;;1.27;;
22622;SDS011;11478;51.094;7.030;2022-08-21T14:51:47;3.92;;;1.23;;
22622;SDS011;11478;51.094;7.030;2022-08-21T14:54:18;4.47;;;1.50;;
22622;SDS011;11478;51.094;7.030;2022-08-21T14:56:52;5.03;;;1.33;;
22622;SDS011;11478;51.094;7.030;2022-08-21T14:59:21;3.03;;;1.10;;
22622;SDS011;11478;51.094;7.030;2022-08-21T15:01:48;3.80;;;1.45;;
22622;SDS011;11478;51.094;7.030;2022-08-21T15:04:24;2.92;;;1.20;;
22622;SDS011;11478;51.094;7.030;2022-08-21T15:06:58;4.15;;;1.30;;
22622;SDS011;11478;51.094;7.030;2022-08-21T15:11:57;3.97;;;1.48;;
22622;SDS011;11478;51.094;7.030;2022-08-21T15:14:30;4.72;;;1.63;;
22622;SDS011;11478;51.094;7.030;2022-08-21T15:17:07;3.85;;;1.25;;
22622;SDS011;11478;51.094;7.030;2022-08-21T15:19:54;3.78;;;1.27;;
22622;SDS011;11478;51.094;7.030;2022-08-21T15:22:30;3.38;;;1.33;;
22622;SDS011;11478;51.094;7.030;2022-08-21T15:24:56;5.35;;;1.20;;
22622;SDS011;11478;51.094;7.030;2022-08-21T15:27:24;4.55;;;1.30;;
22622;SDS011;11478;51.094;7.030;2022-08-21T15:29:52;3.75;;;1.30;;
22622;SDS011;11478;51.094;7.030;2022-08-21T15:35:03;3.15;;;1.20;;
22622;SDS011;11478;51.094;7.030;2022-08-21T15:40:00;2.35;;;1.20;;
22622;SDS011;11478;51.094;7.030;2022-08-21T15:42:43;3.63;;;1.40;;
22622;SDS011;11478;51.094;7.030;2022-08-21T15:45:34;4.45;;;1.58;;
22622;SDS011;11478;51.094;7.030;2022-08-21T15:48:05;3.10;;;1.20;;
22622;SDS011;11478;51.094;7.030;2022-08-21T15:53:04;3.70;;;1.30;;
22622;SDS011;11478;51.094;7.030;2022-08-21T15:58:08;3.30;;;1.20;;
22622;SDS011;11478;51.094;7.030;2022-08-21T16:06:40;4.10;;;1.30;;
22622;SDS011;11478;51.094;7.030;2022-08-21T16:09:19;2.45;;;1.15;;
22622;SDS011;11478;51.094;7.030;2022-08-21T16:11:49;2.83;;;1.10;;
22622;SDS011;11478;51.094;7.030;2022-08-21T16:14:16;2.95;;;1.25;;
22622;SDS011;11478;51.094;7.030;2022-08-21T16:16:48;2.92;;;1.50;;
22622;SDS011;11478;51.094;7.030;2022-08-21T16:19:14;3.58;;;1.38;;
22622;SDS011;11478;51.094;7.030;2022-08-21T16:21:41;3.60;;;1.30;;
22622;SDS011;11478;51.094;7.030;2022-08-21T16:24:07;5.57;;;1.33;;
22622;SDS011;11478;51.094;7.030;2022-08-21T16:26:33;5.25;;;1.50;;
22622;SDS011;11478;51.094;7.030;2022-08-21T16:28:58;3.50;;;1.38;;
22622;SDS011;11478;51.094;7.030;2022-08-21T16:31:27;3.33;;;1.38;;
22622;SDS011;11478;51.094;7.030;2022-08-21T16:33:53;4.60;;;1.42;;
22622;SDS011;11478;51.094;7.030;2022-08-21T16:36:22;4.40;;;1.63;;
22622;SDS011;11478;51.094;7.030;2022-08-21T16:38:50;3.63;;;1.42;;
22622;SDS011;11478;51.094;7.030;2022-08-21T16:41:23;4.13;;;1.40;;
22622;SDS011;11478;51.094;7.030;2022-08-21T16:43:55;3.55;;;1.27;;
22622;SDS011;11478;51.094;7.030;2022-08-21T16:46:22;5.80;;;1.42;;
22622;SDS011;11478;51.094;7.030;2022-08-21T16:48:48;3.55;;;1.30;;
22622;SDS011;11478;51.094;7.030;2022-08-21T16:51:15;3.65;;;1.20;;
22622;SDS011;11478;51.094;7.030;2022-08-21T16:53:41;2.78;;;1.13;;
22622;SDS011;11478;51.094;7.030;2022-08-21T16:56:22;4.47;;;1.13;;
22622;SDS011;11478;51.094;7.030;2022-08-21T16:58:48;2.67;;;1.10;;
22622;SDS011;11478;51.094;7.030;2022-08-21T17:01:38;4.07;;;1.40;;
22622;SDS011;11478;51.094;7.030;2022-08-21T17:04:05;3.08;;;1.33;;
22622;SDS011;11478;51.094;7.030;2022-08-21T17:06:34;4.70;;;1.40;;
22622;SDS011;11478;51.094;7.030;2022-08-21T17:09:02;3.30;;;1.40;;
22622;SDS011;11478;51.094;7.030;2022-08-21T17:11:44;3.13;;;1.38;;
22622;SDS011;11478;51.094;7.030;2022-08-21T17:14:21;3.30;;;1.40;;
22622;SDS011;11478;51.094;7.030;2022-08-21T17:17:03;3.85;;;1.20;;
22622;SDS011;11478;51.094;7.030;2022-08-21T17:19:41;3.20;;;1.40;;
22622;SDS011;11478;51.094;7.030;2022-08-21T17:22:15;4.43;;;1.60;;
22622;SDS011;11478;51.094;7.030;2022-08-21T17:24:52;4.55;;;1.58;;
22622;SDS011;11478;51.094;7.030;2022-08-21T17:27:18;2.47;;;1.00;;
22622;SDS011;11478;51.094;7.030;2022-08-21T17:29:46;3.17;;;1.45;;
22622;SDS011;11478;51.094;7.030;2022-08-21T17:32:14;3.53;;;1.30;;